createdAt,value
2018-07-27T00:00:34.157Z,6.60
2018-07-27T00:05:37.342Z,3.17
2018-07-27T00:10:40.531Z,3.20
2018-07-27T00:15:43.702Z,3.70
2018-07-27T00:20:47.014Z,5.83
2018-07-27T00:25:50.201Z,3.57
2018-07-27T00:30:53.373Z,4.87
2018-07-27T00:35:56.560Z,4.40
2018-07-27T00:40:59.760Z,5.00
2018-07-27T00:46:02.950Z,5.23
2018-07-27T00:51:06.145Z,3.10
2018-07-27T00:56:09.318Z,5.77
2018-07-27T01:01:12.493Z,5.00
2018-07-27T01:06:15.637Z,3.60
2018-07-27T01:11:18.785Z,7.63
2018-07-27T01:16:21.917Z,3.40
2018-07-27T01:21:25.143Z,5.57
2018-07-27T01:26:28.473Z,3.90
2018-07-27T01:31:31.593Z,3.93
2018-07-27T01:36:34.738Z,5.80
2018-07-27T01:41:37.890Z,4.40
2018-07-27T01:46:41.542Z,5.97
2018-07-27T01:51:44.702Z,6.63
2018-07-27T01:56:48.962Z,4.47
2018-07-27T02:01:52.146Z,4.93
2018-07-27T02:06:55.400Z,6.03
2018-07-27T02:11:58.552Z,6.07
2018-07-27T02:17:01.712Z,6.13
2018-07-27T02:22:04.881Z,4.63
2018-07-27T02:27:08.046Z,5.87
2018-07-27T02:32:11.245Z,4.23
2018-07-27T02:37:14.414Z,4.20
2018-07-27T02:42:17.746Z,4.70
2018-07-27T02:47:20.887Z,5.07
2018-07-27T02:52:24.049Z,8.60
2018-07-27T02:57:27.204Z,4.53
2018-07-27T03:02:30.388Z,3.63
2018-07-27T03:07:33.562Z,4.80
2018-07-27T03:12:36.727Z,5.23
2018-07-27T03:17:39.898Z,4.40
2018-07-27T03:22:43.082Z,4.90
2018-07-27T03:27:46.256Z,7.70
2018-07-27T03:32:49.453Z,4.10
2018-07-27T03:37:53.262Z,8.70
2018-07-27T03:42:56.452Z,6.40
2018-07-27T03:47:59.665Z,5.97
2018-07-27T03:53:02.979Z,5.67
2018-07-27T03:58:06.162Z,5.53
2018-07-27T04:03:09.349Z,5.67
2018-07-27T04:08:12.524Z,4.90
2018-07-27T04:13:15.677Z,7.00
2018-07-27T04:18:18.861Z,7.23
2018-07-27T04:23:22.058Z,7.13
2018-07-27T04:28:25.210Z,8.00
2018-07-27T04:33:28.382Z,6.57
2018-07-27T04:38:31.544Z,6.97
2018-07-27T04:43:34.726Z,7.00
2018-07-27T04:48:37.937Z,6.17
2018-07-27T04:53:43.169Z,10.03
2018-07-27T04:58:46.327Z,7.77
2018-07-27T05:03:49.518Z,10.47
2018-07-27T05:08:58.168Z,6.37
2018-07-27T05:14:01.385Z,10.27
2018-07-27T05:19:04.593Z,8.93
2018-07-27T05:24:07.854Z,8.57
2018-07-27T05:29:11.088Z,8.97
2018-07-27T05:34:14.274Z,8.87
2018-07-27T05:39:17.427Z,9.03
2018-07-27T05:44:20.734Z,10.27
2018-07-27T05:49:25.075Z,8.00
2018-07-27T05:54:28.358Z,11.20
2018-07-27T05:59:31.561Z,9.03
2018-07-27T06:04:34.718Z,13.50
2018-07-27T06:09:37.892Z,9.30
2018-07-27T06:14:41.155Z,8.93
2018-07-27T06:19:44.358Z,11.00
2018-07-27T06:24:49.118Z,9.63
2018-07-27T06:29:53.112Z,8.27
2018-07-27T06:34:56.284Z,14.00
2018-07-27T06:39:59.670Z,13.27
2018-07-27T06:45:02.844Z,10.80
2018-07-27T06:50:09.190Z,14.67
2018-07-27T06:55:12.346Z,13.13
2018-07-27T07:00:15.637Z,12.67
2018-07-27T07:05:18.833Z,8.90
2018-07-27T07:10:22.003Z,11.33
2018-07-27T07:15:25.197Z,9.47
2018-07-27T07:20:28.444Z,13.73
2018-07-27T07:25:31.780Z,12.83
2018-07-27T07:30:34.806Z,13.47
2018-07-27T07:35:37.989Z,11.87
2018-07-27T07:40:41.243Z,9.43
2018-07-27T07:45:44.433Z,17.90
2018-07-27T07:50:47.698Z,11.33
2018-07-27T07:55:50.958Z,12.87
2018-07-27T08:00:54.129Z,9.13
2018-07-27T08:05:57.378Z,8.67
2018-07-27T08:11:01.589Z,9.83
2018-07-27T08:16:04.850Z,9.47
2018-07-27T08:21:10.161Z,9.93
2018-07-27T08:26:57.093Z,6.90
2018-07-27T08:32:00.745Z,9.70
2018-07-27T08:37:04.511Z,8.63
2018-07-27T08:42:08.898Z,7.67
2018-07-27T08:47:12.146Z,9.80
2018-07-27T08:52:16.365Z,8.23
2018-07-27T08:57:19.726Z,9.37
2018-07-27T09:02:22.921Z,6.10
2018-07-27T09:07:26.110Z,8.90
2018-07-27T09:12:29.300Z,7.30
2018-07-27T09:17:33.518Z,5.50
2018-07-27T09:22:36.662Z,5.20
2018-07-27T09:27:40.632Z,6.53
2018-07-27T09:32:43.819Z,8.47
2018-07-27T09:37:47.074Z,13.77
2018-07-27T09:42:51.406Z,6.37
2018-07-27T09:47:54.633Z,5.43
2018-07-27T09:52:58.828Z,7.23
2018-07-27T09:58:02.114Z,6.60
2018-07-27T10:03:05.510Z,6.13
2018-07-27T10:08:08.778Z,5.87
2018-07-27T10:13:11.961Z,7.53
2018-07-27T10:18:15.137Z,9.00
2018-07-27T10:23:18.297Z,6.10
2018-07-27T10:28:24.672Z,8.97
2018-07-27T10:33:27.949Z,5.13
2018-07-27T10:38:32.246Z,4.67
2018-07-27T10:43:35.448Z,5.17
2018-07-27T10:48:39.343Z,5.70
2018-07-27T10:53:42.560Z,3.97
2018-07-27T10:58:45.813Z,10.17
2018-07-27T11:03:49.078Z,8.43
2018-07-27T11:08:52.365Z,4.80
2018-07-27T11:13:55.665Z,3.97
2018-07-27T11:18:58.954Z,4.20
2018-07-27T11:24:02.214Z,4.33
2018-07-27T11:29:05.497Z,4.70
2018-07-27T11:34:08.769Z,7.03
2018-07-27T11:39:12.254Z,3.53
2018-07-27T11:44:16.469Z,3.90
2018-07-27T11:49:19.674Z,3.13
2018-07-27T11:54:23.171Z,3.33
2018-07-27T11:59:28.476Z,4.10
2018-07-27T12:04:32.990Z,4.67
2018-07-27T12:09:36.778Z,3.73
2018-07-27T12:14:40.277Z,2.87
2018-07-27T12:19:43.280Z,5.33
2018-07-27T12:24:46.437Z,4.67
2018-07-27T12:29:49.669Z,3.73
2018-07-27T12:34:53.205Z,3.35
2018-07-27T12:39:56.493Z,3.50
2018-07-27T12:45:00.039Z,4.43
2018-07-27T12:50:03.206Z,4.77
2018-07-27T12:55:06.958Z,4.73
2018-07-27T13:00:10.479Z,4.70
2018-07-27T13:05:14.689Z,4.00
2018-07-27T13:10:17.554Z,4.40
2018-07-27T13:15:21.777Z,3.50
2018-07-27T13:20:30.486Z,3.83
2018-07-27T13:25:33.638Z,4.57
2018-07-27T13:30:36.945Z,7.05
2018-07-27T13:35:40.471Z,5.63
2018-07-27T13:40:44.525Z,3.77
2018-07-27T13:45:47.841Z,3.67
2018-07-27T13:50:51.620Z,5.50
2018-07-27T13:55:55.430Z,3.77
2018-07-27T14:00:59.229Z,5.20
2018-07-27T14:06:02.387Z,4.73
2018-07-27T14:11:05.585Z,9.70
2018-07-27T14:16:08.798Z,4.17
2018-07-27T14:21:11.985Z,3.00
2018-07-27T14:26:15.211Z,3.65
2018-07-27T14:31:18.443Z,4.17
2018-07-27T14:36:21.897Z,4.53
2018-07-27T14:41:28.399Z,3.90
2018-07-27T14:46:32.946Z,2.87
2018-07-27T14:51:36.313Z,3.07
2018-07-27T14:56:40.466Z,5.33
2018-07-27T15:01:43.826Z,3.20
2018-07-27T15:06:46.987Z,6.30
2018-07-27T15:11:50.188Z,4.07
2018-07-27T15:16:53.426Z,5.77
2018-07-27T15:21:56.591Z,5.10
2018-07-27T15:27:00.803Z,4.33
2018-07-27T15:32:04.190Z,4.03
2018-07-27T15:37:07.375Z,4.17
2018-07-27T15:42:10.600Z,5.10
2018-07-27T15:47:13.749Z,7.97
2018-07-27T15:52:16.937Z,5.40
2018-07-27T15:57:20.078Z,6.05
2018-07-27T16:02:23.249Z,4.80
2018-07-27T16:07:26.443Z,5.07
2018-07-27T16:12:29.637Z,4.83
2018-07-27T16:17:33.006Z,5.30
2018-07-27T16:22:36.180Z,6.13
2018-07-27T16:27:39.321Z,4.60
2018-07-27T16:32:42.598Z,5.08
2018-07-27T16:37:46.830Z,6.50
2018-07-27T16:42:50.041Z,9.20
2018-07-27T16:47:53.250Z,5.20
2018-07-27T16:52:56.470Z,5.90
2018-07-27T16:58:08.221Z,7.03
2018-07-27T17:03:11.453Z,7.80
2018-07-27T17:08:15.105Z,6.50
2018-07-27T17:13:18.333Z,8.17
2018-07-27T17:18:21.561Z,5.63
2018-07-27T17:23:24.736Z,7.00
2018-07-27T17:28:28.016Z,13.50
2018-07-27T17:33:31.182Z,5.80
2018-07-27T17:38:34.373Z,6.60
2018-07-27T17:43:37.524Z,5.93
2018-07-27T17:48:40.710Z,5.90
2018-07-27T17:53:43.878Z,8.63
2018-07-27T17:58:47.092Z,7.70
2018-07-27T18:03:50.255Z,6.77
2018-07-27T18:08:53.617Z,6.17
2018-07-27T18:13:57.097Z,7.07
2018-07-27T18:19:02.207Z,8.60
2018-07-27T18:24:05.802Z,9.80
2018-07-27T18:29:09.001Z,7.57
2018-07-27T18:34:12.253Z,7.30
2018-07-27T18:39:15.397Z,14.57
2018-07-27T18:44:18.670Z,9.67
2018-07-27T18:49:22.046Z,9.00
2018-07-27T18:54:25.293Z,9.27
2018-07-27T18:59:28.466Z,8.20
2018-07-27T19:04:31.717Z,7.90
2018-07-27T19:09:35.538Z,9.07
2018-07-27T19:14:40.757Z,9.87
2018-07-27T19:19:43.926Z,7.57
2018-07-27T19:24:48.910Z,7.23
2018-07-27T19:29:52.250Z,6.90
2018-07-27T19:34:55.655Z,11.70
2018-07-27T19:39:59.959Z,7.10
2018-07-27T19:45:05.143Z,7.70
2018-07-27T19:50:08.381Z,8.50
2018-07-27T19:55:13.026Z,7.77
2018-07-27T20:00:16.189Z,10.90
2018-07-27T20:05:20.712Z,7.03
2018-07-27T20:10:23.967Z,8.57
2018-07-27T20:15:27.181Z,11.17
2018-07-27T20:20:31.716Z,7.07
2018-07-27T20:25:34.849Z,6.27
2018-07-27T20:30:39.053Z,8.23
2018-07-27T20:35:42.374Z,6.20
2018-07-27T20:40:46.690Z,6.13
2018-07-27T20:45:49.876Z,9.67
2018-07-27T20:50:54.045Z,10.60
2018-07-27T20:55:57.193Z,9.53
2018-07-27T21:01:03.345Z,8.67
2018-07-27T21:06:07.919Z,7.00
2018-07-27T21:11:11.145Z,7.07
2018-07-27T21:16:15.998Z,13.60
2018-07-27T21:21:19.269Z,10.97
2018-07-27T21:26:22.465Z,12.40
2018-07-27T21:31:25.970Z,9.10
2018-07-27T21:36:29.579Z,9.20
2018-07-27T21:41:32.786Z,7.33
2018-07-27T21:46:36.047Z,14.90
2018-07-27T21:51:39.391Z,7.57
2018-07-27T21:56:42.509Z,6.93
2018-07-27T22:01:45.652Z,5.93
2018-07-27T22:06:48.869Z,10.53
2018-07-27T22:11:52.037Z,8.67
2018-07-27T22:16:55.600Z,8.20
2018-07-27T22:21:58.845Z,9.83
2018-07-27T22:27:01.997Z,5.97
2018-07-27T22:32:05.197Z,7.97
2018-07-27T22:37:08.478Z,8.10
2018-07-27T22:42:11.749Z,8.37
2018-07-27T22:47:14.901Z,6.77
2018-07-27T22:52:18.206Z,8.70
2018-07-27T22:57:21.565Z,6.57
2018-07-27T23:02:24.747Z,6.87
2018-07-27T23:07:27.988Z,7.20
2018-07-27T23:12:33.165Z,6.60
2018-07-27T23:17:36.390Z,7.70
2018-07-27T23:22:39.574Z,9.60
2018-07-27T23:27:42.818Z,6.60
2018-07-27T23:32:46.038Z,6.43
2018-07-27T23:37:49.441Z,6.87
2018-07-27T23:42:52.645Z,8.50
2018-07-27T23:47:56.054Z,9.77
2018-07-27T23:52:59.333Z,18.23
2018-07-27T23:58:02.493Z,7.63
